sensor_id;sensor_type;location;lat;lon;timestamp;P1;durP1;ratioP1;P2;durP2;ratioP2
4577;SDS011;2301;47.354;8.528;2022-11-23T00:02:17;3.55;;;2.00;;
4577;SDS011;2301;47.354;8.528;2022-11-23T00:04:44;2.17;;;1.33;;
4577;SDS011;2301;47.354;8.528;2022-11-23T00:07:11;7.07;;;1.42;;
4577;SDS011;2301;47.354;8.528;2022-11-23T00:09:38;5.03;;;2.13;;
4577;SDS011;2301;47.354;8.528;2022-11-23T00:12:05;6.47;;;1.80;;
4577;SDS011;2301;47.354;8.528;2022-11-23T00:14:32;9.13;;;2.30;;
4577;SDS011;2301;47.354;8.528;2022-11-23T00:17:01;4.97;;;2.10;;
4577;SDS011;2301;47.354;8.528;2022-11-23T00:19:28;8.98;;;3.60;;
4577;SDS011;2301;47.354;8.528;2022-11-23T00:21:55;9.07;;;4.88;;
4577;SDS011;2301;47.354;8.528;2022-11-23T00:24:21;7.45;;;3.90;;
4577;SDS011;2301;47.354;8.528;2022-11-23T00:26:48;8.15;;;3.63;;
4577;SDS011;2301;47.354;8.528;2022-11-23T00:29:15;21.00;;;6.85;;
4577;SDS011;2301;47.354;8.528;2022-11-23T00:31:42;11.77;;;4.95;;
4577;SDS011;2301;47.354;8.528;2022-11-23T00:34:10;7.00;;;4.18;;
4577;SDS011;2301;47.354;8.528;2022-11-23T00:36:37;8.82;;;3.65;;
4577;SDS011;2301;47.354;8.528;2022-11-23T00:39:04;9.52;;;3.58;;
4577;SDS011;2301;47.354;8.528;2022-11-23T00:41:31;5.43;;;2.90;;
4577;SDS011;2301;47.354;8.528;2022-11-23T00:43:58;4.78;;;2.50;;
4577;SDS011;2301;47.354;8.528;2022-11-23T00:46:25;3.58;;;1.80;;
4577;SDS011;2301;47.354;8.528;2022-11-23T00:48:53;3.50;;;2.40;;
4577;SDS011;2301;47.354;8.528;2022-11-23T00:51:24;9.00;;;3.30;;
4577;SDS011;2301;47.354;8.528;2022-11-23T00:53:52;3.50;;;2.10;;
4577;SDS011;2301;47.354;8.528;2022-11-23T00:56:19;2.38;;;1.50;;
4577;SDS011;2301;47.354;8.528;2022-11-23T00:58:46;4.18;;;1.90;;
4577;SDS011;2301;47.354;8.528;2022-11-23T01:01:14;2.42;;;1.58;;
4577;SDS011;2301;47.354;8.528;2022-11-23T01:03:43;4.20;;;1.60;;
4577;SDS011;2301;47.354;8.528;2022-11-23T01:06:12;1.88;;;1.30;;
4577;SDS011;2301;47.354;8.528;2022-11-23T01:08:41;2.42;;;1.60;;
4577;SDS011;2301;47.354;8.528;2022-11-23T01:11:13;1.65;;;1.42;;
4577;SDS011;2301;47.354;8.528;2022-11-23T01:13:40;6.22;;;1.80;;
4577;SDS011;2301;47.354;8.528;2022-11-23T01:16:08;5.65;;;1.77;;
4577;SDS011;2301;47.354;8.528;2022-11-23T01:18:38;3.55;;;1.50;;
4577;SDS011;2301;47.354;8.528;2022-11-23T01:21:05;3.08;;;1.73;;
4577;SDS011;2301;47.354;8.528;2022-11-23T01:23:32;3.28;;;1.30;;
4577;SDS011;2301;47.354;8.528;2022-11-23T01:26:04;4.30;;;1.67;;
4577;SDS011;2301;47.354;8.528;2022-11-23T01:28:32;4.75;;;1.92;;
4577;SDS011;2301;47.354;8.528;2022-11-23T01:31:03;3.20;;;1.67;;
4577;SDS011;2301;47.354;8.528;2022-11-23T01:33:31;1.70;;;1.20;;
4577;SDS011;2301;47.354;8.528;2022-11-23T01:35:58;1.45;;;1.35;;
4577;SDS011;2301;47.354;8.528;2022-11-23T01:38:25;2.75;;;1.40;;
4577;SDS011;2301;47.354;8.528;2022-11-23T01:40:52;2.60;;;1.48;;
4577;SDS011;2301;47.354;8.528;2022-11-23T01:43:20;4.30;;;1.20;;
4577;SDS011;2301;47.354;8.528;2022-11-23T01:45:56;2.28;;;1.20;;
4577;SDS011;2301;47.354;8.528;2022-11-23T01:48:25;1.52;;;1.27;;
4577;SDS011;2301;47.354;8.528;2022-11-23T01:50:56;4.10;;;2.05;;
4577;SDS011;2301;47.354;8.528;2022-11-23T01:53:26;5.63;;;1.73;;
4577;SDS011;2301;47.354;8.528;2022-11-23T01:55:55;3.83;;;1.50;;
4577;SDS011;2301;47.354;8.528;2022-11-23T01:58:26;4.80;;;1.58;;
4577;SDS011;2301;47.354;8.528;2022-11-23T02:00:57;3.10;;;2.10;;
4577;SDS011;2301;47.354;8.528;2022-11-23T02:03:24;4.82;;;2.25;;
4577;SDS011;2301;47.354;8.528;2022-11-23T02:05:53;1.73;;;1.38;;
4577;SDS011;2301;47.354;8.528;2022-11-23T02:08:25;2.65;;;1.40;;
4577;SDS011;2301;47.354;8.528;2022-11-23T02:10:54;2.35;;;1.27;;
4577;SDS011;2301;47.354;8.528;2022-11-23T02:13:23;6.07;;;1.52;;
4577;SDS011;2301;47.354;8.528;2022-11-23T02:15:54;4.72;;;1.30;;
4577;SDS011;2301;47.354;8.528;2022-11-23T02:18:23;3.65;;;1.70;;
4577;SDS011;2301;47.354;8.528;2022-11-23T02:20:52;2.53;;;1.85;;
4577;SDS011;2301;47.354;8.528;2022-11-23T02:23:23;4.53;;;1.40;;
4577;SDS011;2301;47.354;8.528;2022-11-23T02:26:00;5.25;;;1.20;;
4577;SDS011;2301;47.354;8.528;2022-11-23T02:28:32;3.60;;;1.40;;
4577;SDS011;2301;47.354;8.528;2022-11-23T02:31:01;2.35;;;1.60;;
4577;SDS011;2301;47.354;8.528;2022-11-23T02:33:28;2.70;;;1.50;;
4577;SDS011;2301;47.354;8.528;2022-11-23T02:35:56;2.25;;;1.42;;
4577;SDS011;2301;47.354;8.528;2022-11-23T02:38:25;2.25;;;1.40;;
4577;SDS011;2301;47.354;8.528;2022-11-23T02:40:54;3.50;;;1.20;;
4577;SDS011;2301;47.354;8.528;2022-11-23T02:43:22;2.90;;;1.77;;
4577;SDS011;2301;47.354;8.528;2022-11-23T02:45:50;1.55;;;1.20;;
4577;SDS011;2301;47.354;8.528;2022-11-23T02:48:20;2.80;;;1.23;;
4577;SDS011;2301;47.354;8.528;2022-11-23T02:50:47;1.35;;;1.23;;
4577;SDS011;2301;47.354;8.528;2022-11-23T02:53:14;2.08;;;1.25;;
4577;SDS011;2301;47.354;8.528;2022-11-23T02:55:41;6.63;;;1.40;;
4577;SDS011;2301;47.354;8.528;2022-11-23T02:58:08;4.25;;;1.60;;
4577;SDS011;2301;47.354;8.528;2022-11-23T03:00:37;3.42;;;1.60;;
4577;SDS011;2301;47.354;8.528;2022-11-23T03:03:04;3.75;;;1.58;;
4577;SDS011;2301;47.354;8.528;2022-11-23T03:05:31;5.53;;;2.10;;
4577;SDS011;2301;47.354;8.528;2022-11-23T03:07:59;2.92;;;1.30;;
4577;SDS011;2301;47.354;8.528;2022-11-23T03:10:26;3.10;;;1.30;;
4577;SDS011;2301;47.354;8.528;2022-11-23T03:12:53;5.45;;;1.60;;
4577;SDS011;2301;47.354;8.528;2022-11-23T03:15:20;1.73;;;1.35;;
4577;SDS011;2301;47.354;8.528;2022-11-23T03:17:49;2.60;;;1.90;;
4577;SDS011;2301;47.354;8.528;2022-11-23T03:20:16;3.42;;;1.40;;
4577;SDS011;2301;47.354;8.528;2022-11-23T03:22:43;4.82;;;1.50;;
4577;SDS011;2301;47.354;8.528;2022-11-23T03:25:10;3.42;;;1.40;;
4577;SDS011;2301;47.354;8.528;2022-11-23T03:27:37;7.72;;;1.40;;
4577;SDS011;2301;47.354;8.528;2022-11-23T03:30:05;4.70;;;1.70;;
4577;SDS011;2301;47.354;8.528;2022-11-23T03:32:33;1.65;;;1.20;;
4577;SDS011;2301;47.354;8.528;2022-11-23T03:35:02;1.95;;;1.40;;
4577;SDS011;2301;47.354;8.528;2022-11-23T03:37:29;5.00;;;2.10;;
4577;SDS011;2301;47.354;8.528;2022-11-23T03:39:56;2.65;;;1.48;;
4577;SDS011;2301;47.354;8.528;2022-11-23T03:42:23;2.60;;;1.60;;
4577;SDS011;2301;47.354;8.528;2022-11-23T03:44:50;3.20;;;1.40;;
4577;SDS011;2301;47.354;8.528;2022-11-23T03:47:17;3.25;;;1.75;;
4577;SDS011;2301;47.354;8.528;2022-11-23T03:49:44;3.03;;;1.50;;
4577;SDS011;2301;47.354;8.528;2022-11-23T03:52:12;7.07;;;1.83;;
4577;SDS011;2301;47.354;8.528;2022-11-23T03:54:39;5.45;;;1.77;;
4577;SDS011;2301;47.354;8.528;2022-11-23T03:57:06;4.85;;;1.40;;
4577;SDS011;2301;47.354;8.528;2022-11-23T03:59:33;3.40;;;1.55;;
4577;SDS011;2301;47.354;8.528;2022-11-23T04:02:00;3.85;;;1.95;;
4577;SDS011;2301;47.354;8.528;2022-11-23T04:04:26;5.07;;;1.60;;
4577;SDS011;2301;47.354;8.528;2022-11-23T04:06:53;3.10;;;1.77;;
4577;SDS011;2301;47.354;8.528;2022-11-23T04:09:22;3.42;;;1.80;;
4577;SDS011;2301;47.354;8.528;2022-11-23T04:11:48;2.28;;;1.25;;
4577;SDS011;2301;47.354;8.528;2022-11-23T04:14:15;3.35;;;1.70;;
4577;SDS011;2301;47.354;8.528;2022-11-23T04:16:42;3.25;;;1.50;;
4577;SDS011;2301;47.354;8.528;2022-11-23T04:19:09;2.92;;;1.52;;
4577;SDS011;2301;47.354;8.528;2022-11-23T04:21:36;3.85;;;1.95;;
4577;SDS011;2301;47.354;8.528;2022-11-23T04:24:03;4.75;;;2.38;;
4577;SDS011;2301;47.354;8.528;2022-11-23T04:26:32;3.90;;;1.85;;
4577;SDS011;2301;47.354;8.528;2022-11-23T04:28:59;2.72;;;1.50;;
4577;SDS011;2301;47.354;8.528;2022-11-23T04:31:26;5.20;;;1.52;;
4577;SDS011;2301;47.354;8.528;2022-11-23T04:33:53;3.30;;;1.60;;
4577;SDS011;2301;47.354;8.528;2022-11-23T04:36:20;5.03;;;1.60;;
4577;SDS011;2301;47.354;8.528;2022-11-23T04:38:47;2.50;;;1.52;;
4577;SDS011;2301;47.354;8.528;2022-11-23T04:41:14;2.70;;;1.38;;
4577;SDS011;2301;47.354;8.528;2022-11-23T04:43:43;3.95;;;1.70;;
4577;SDS011;2301;47.354;8.528;2022-11-23T04:46:10;2.17;;;1.33;;
4577;SDS011;2301;47.354;8.528;2022-11-23T04:48:37;5.07;;;1.70;;
4577;SDS011;2301;47.354;8.528;2022-11-23T04:51:04;6.53;;;1.70;;
4577;SDS011;2301;47.354;8.528;2022-11-23T04:53:31;2.75;;;1.65;;
4577;SDS011;2301;47.354;8.528;2022-11-23T04:55:58;1.95;;;1.33;;
4577;SDS011;2301;47.354;8.528;2022-11-23T04:58:25;2.90;;;1.50;;
4577;SDS011;2301;47.354;8.528;2022-11-23T05:00:53;4.38;;;1.77;;
4577;SDS011;2301;47.354;8.528;2022-11-23T05:03:20;2.65;;;1.85;;
4577;SDS011;2301;47.354;8.528;2022-11-23T05:05:47;3.63;;;1.40;;
4577;SDS011;2301;47.354;8.528;2022-11-23T05:08:14;2.50;;;1.80;;
4577;SDS011;2301;47.354;8.528;2022-11-23T05:10:42;3.55;;;1.58;;
4577;SDS011;2301;47.354;8.528;2022-11-23T05:13:09;2.35;;;1.48;;
4577;SDS011;2301;47.354;8.528;2022-11-23T05:15:36;8.68;;;1.70;;
4577;SDS011;2301;47.354;8.528;2022-11-23T05:18:05;5.22;;;2.15;;
4577;SDS011;2301;47.354;8.528;2022-11-23T05:20:33;1.67;;;1.40;;
4577;SDS011;2301;47.354;8.528;2022-11-23T05:23:00;9.88;;;1.60;;
4577;SDS011;2301;47.354;8.528;2022-11-23T05:25:27;3.78;;;1.33;;
4577;SDS011;2301;47.354;8.528;2022-11-23T05:27:54;4.20;;;2.00;;
4577;SDS011;2301;47.354;8.528;2022-11-23T05:30:21;3.05;;;1.48;;
4577;SDS011;2301;47.354;8.528;2022-11-23T05:32:48;2.20;;;1.60;;
4577;SDS011;2301;47.354;8.528;2022-11-23T05:35:16;2.85;;;1.65;;
4577;SDS011;2301;47.354;8.528;2022-11-23T05:37:43;4.45;;;1.70;;
4577;SDS011;2301;47.354;8.528;2022-11-23T05:40:10;3.78;;;1.75;;
4577;SDS011;2301;47.354;8.528;2022-11-23T05:42:37;6.68;;;1.52;;
4577;SDS011;2301;47.354;8.528;2022-11-23T05:45:05;1.42;;;1.33;;
4577;SDS011;2301;47.354;8.528;2022-11-23T05:47:32;2.17;;;1.50;;
4577;SDS011;2301;47.354;8.528;2022-11-23T05:49:59;4.88;;;1.65;;
4577;SDS011;2301;47.354;8.528;2022-11-23T05:52:27;3.92;;;1.55;;
4577;SDS011;2301;47.354;8.528;2022-11-23T05:54:54;6.28;;;2.45;;
4577;SDS011;2301;47.354;8.528;2022-11-23T05:57:21;4.55;;;2.10;;
4577;SDS011;2301;47.354;8.528;2022-11-23T05:59:48;6.15;;;2.33;;
4577;SDS011;2301;47.354;8.528;2022-11-23T06:02:15;6.22;;;2.75;;
4577;SDS011;2301;47.354;8.528;2022-11-23T06:04:42;5.03;;;2.33;;
4577;SDS011;2301;47.354;8.528;2022-11-23T06:07:09;4.20;;;1.85;;
4577;SDS011;2301;47.354;8.528;2022-11-23T06:09:37;5.72;;;2.00;;
4577;SDS011;2301;47.354;8.528;2022-11-23T06:12:04;8.00;;;2.22;;
4577;SDS011;2301;47.354;8.528;2022-11-23T06:14:32;7.97;;;2.63;;
4577;SDS011;2301;47.354;8.528;2022-11-23T06:16:58;4.63;;;2.45;;
4577;SDS011;2301;47.354;8.528;2022-11-23T06:19:25;12.02;;;2.47;;
4577;SDS011;2301;47.354;8.528;2022-11-23T06:21:54;4.78;;;1.90;;
4577;SDS011;2301;47.354;8.528;2022-11-23T06:24:21;2.40;;;1.95;;
4577;SDS011;2301;47.354;8.528;2022-11-23T06:26:49;4.97;;;2.13;;
4577;SDS011;2301;47.354;8.528;2022-11-23T06:29:16;5.88;;;2.63;;
4577;SDS011;2301;47.354;8.528;2022-11-23T06:31:43;7.30;;;2.30;;
4577;SDS011;2301;47.354;8.528;2022-11-23T06:34:10;8.25;;;2.97;;
4577;SDS011;2301;47.354;8.528;2022-11-23T06:36:37;5.10;;;3.08;;
4577;SDS011;2301;47.354;8.528;2022-11-23T06:39:04;10.77;;;3.50;;
4577;SDS011;2301;47.354;8.528;2022-11-23T06:41:31;7.32;;;3.20;;
4577;SDS011;2301;47.354;8.528;2022-11-23T06:44:00;6.80;;;3.80;;
4577;SDS011;2301;47.354;8.528;2022-11-23T06:46:27;5.05;;;3.83;;
4577;SDS011;2301;47.354;8.528;2022-11-23T06:48:54;6.63;;;3.80;;
4577;SDS011;2301;47.354;8.528;2022-11-23T06:51:21;7.22;;;4.25;;
4577;SDS011;2301;47.354;8.528;2022-11-23T06:53:47;7.63;;;4.47;;
4577;SDS011;2301;47.354;8.528;2022-11-23T06:56:15;9.35;;;3.67;;
4577;SDS011;2301;47.354;8.528;2022-11-23T06:58:42;10.73;;;3.08;;
4577;SDS011;2301;47.354;8.528;2022-11-23T07:01:10;10.68;;;2.88;;
4577;SDS011;2301;47.354;8.528;2022-11-23T07:03:37;7.57;;;3.10;;
4577;SDS011;2301;47.354;8.528;2022-11-23T07:06:04;7.90;;;2.88;;
4577;SDS011;2301;47.354;8.528;2022-11-23T07:08:34;4.03;;;1.90;;
4577;SDS011;2301;47.354;8.528;2022-11-23T07:11:04;7.72;;;2.20;;
4577;SDS011;2301;47.354;8.528;2022-11-23T07:13:31;9.48;;;2.97;;
4577;SDS011;2301;47.354;8.528;2022-11-23T07:15:58;4.20;;;2.13;;
4577;SDS011;2301;47.354;8.528;2022-11-23T07:18:26;12.43;;;3.05;;
4577;SDS011;2301;47.354;8.528;2022-11-23T07:20:56;12.25;;;3.15;;
4577;SDS011;2301;47.354;8.528;2022-11-23T07:23:23;5.63;;;2.63;;
4577;SDS011;2301;47.354;8.528;2022-11-23T07:25:50;22.98;;;2.70;;
4577;SDS011;2301;47.354;8.528;2022-11-23T07:28:17;10.02;;;2.83;;
4577;SDS011;2301;47.354;8.528;2022-11-23T07:30:45;8.95;;;2.67;;
4577;SDS011;2301;47.354;8.528;2022-11-23T07:33:11;6.55;;;2.60;;
4577;SDS011;2301;47.354;8.528;2022-11-23T07:35:40;10.18;;;2.85;;
4577;SDS011;2301;47.354;8.528;2022-11-23T07:38:07;6.55;;;2.70;;
4577;SDS011;2301;47.354;8.528;2022-11-23T07:40:35;12.65;;;3.35;;
4577;SDS011;2301;47.354;8.528;2022-11-23T07:43:02;7.75;;;3.20;;
4577;SDS011;2301;47.354;8.528;2022-11-23T07:45:30;5.85;;;3.15;;
4577;SDS011;2301;47.354;8.528;2022-11-23T07:47:58;5.03;;;2.63;;
4577;SDS011;2301;47.354;8.528;2022-11-23T07:50:26;8.57;;;2.70;;
4577;SDS011;2301;47.354;8.528;2022-11-23T07:52:54;7.32;;;3.15;;
4577;SDS011;2301;47.354;8.528;2022-11-23T07:55:21;6.93;;;2.55;;
4577;SDS011;2301;47.354;8.528;2022-11-23T07:57:50;13.13;;;4.40;;
4577;SDS011;2301;47.354;8.528;2022-11-23T08:00:19;13.32;;;3.22;;
4577;SDS011;2301;47.354;8.528;2022-11-23T08:02:46;7.22;;;3.10;;
4577;SDS011;2301;47.354;8.528;2022-11-23T08:05:13;8.20;;;3.15;;
4577;SDS011;2301;47.354;8.528;2022-11-23T08:07:40;15.80;;;4.15;;
4577;SDS011;2301;47.354;8.528;2022-11-23T08:10:10;11.25;;;3.72;;
4577;SDS011;2301;47.354;8.528;2022-11-23T08:12:37;9.68;;;3.70;;
4577;SDS011;2301;47.354;8.528;2022-11-23T08:15:04;11.05;;;3.50;;
4577;SDS011;2301;47.354;8.528;2022-11-23T08:17:32;13.02;;;3.72;;
4577;SDS011;2301;47.354;8.528;2022-11-23T08:19:59;6.13;;;2.40;;
4577;SDS011;2301;47.354;8.528;2022-11-23T08:22:26;10.25;;;2.70;;
4577;SDS011;2301;47.354;8.528;2022-11-23T08:24:53;8.38;;;2.92;;
4577;SDS011;2301;47.354;8.528;2022-11-23T08:27:21;8.07;;;2.65;;
4577;SDS011;2301;47.354;8.528;2022-11-23T08:29:48;8.65;;;3.03;;
4577;SDS011;2301;47.354;8.528;2022-11-23T08:32:15;4.80;;;2.50;;
4577;SDS011;2301;47.354;8.528;2022-11-23T08:34:42;7.97;;;2.30;;
4577;SDS011;2301;47.354;8.528;2022-11-23T08:37:09;9.10;;;2.60;;
4577;SDS011;2301;47.354;8.528;2022-11-23T08:39:36;5.65;;;2.20;;
4577;SDS011;2301;47.354;8.528;2022-11-23T08:42:03;6.22;;;2.65;;
4577;SDS011;2301;47.354;8.528;2022-11-23T08:44:31;3.80;;;2.53;;
4577;SDS011;2301;47.354;8.528;2022-11-23T08:46:58;4.68;;;2.20;;
4577;SDS011;2301;47.354;8.528;2022-11-23T08:49:26;7.78;;;2.42;;
4577;SDS011;2301;47.354;8.528;2022-11-23T08:51:53;7.47;;;2.30;;
4577;SDS011;2301;47.354;8.528;2022-11-23T08:54:20;4.25;;;2.10;;
4577;SDS011;2301;47.354;8.528;2022-11-23T08:56:48;6.03;;;2.25;;
4577;SDS011;2301;47.354;8.528;2022-11-23T08:59:15;6.78;;;2.20;;
4577;SDS011;2301;47.354;8.528;2022-11-23T09:01:44;5.35;;;2.40;;
4577;SDS011;2301;47.354;8.528;2022-11-23T09:04:11;3.65;;;2.40;;
4577;SDS011;2301;47.354;8.528;2022-11-23T09:06:38;4.20;;;2.40;;
4577;SDS011;2301;47.354;8.528;2022-11-23T09:09:05;5.68;;;1.92;;
4577;SDS011;2301;47.354;8.528;2022-11-23T09:11:32;3.83;;;2.20;;
4577;SDS011;2301;47.354;8.528;2022-11-23T09:13:59;1.95;;;1.60;;
4577;SDS011;2301;47.354;8.528;2022-11-23T09:16:26;2.03;;;1.55;;
4577;SDS011;2301;47.354;8.528;2022-11-23T09:18:55;7.15;;;1.80;;
4577;SDS011;2301;47.354;8.528;2022-11-23T09:21:22;2.67;;;1.52;;
4577;SDS011;2301;47.354;8.528;2022-11-23T09:23:53;5.55;;;1.52;;
4577;SDS011;2301;47.354;8.528;2022-11-23T09:26:21;2.08;;;1.77;;
4577;SDS011;2301;47.354;8.528;2022-11-23T09:28:48;6.72;;;1.90;;
4577;SDS011;2301;47.354;8.528;2022-11-23T09:31:15;2.03;;;1.60;;
4577;SDS011;2301;47.354;8.528;2022-11-23T09:33:42;4.55;;;2.00;;
4577;SDS011;2301;47.354;8.528;2022-11-23T09:36:10;2.10;;;1.80;;
4577;SDS011;2301;47.354;8.528;2022-11-23T09:38:37;3.03;;;1.95;;
4577;SDS011;2301;47.354;8.528;2022-11-23T09:41:06;4.78;;;2.00;;
4577;SDS011;2301;47.354;8.528;2022-11-23T09:43:49;4.40;;;2.20;;
4577;SDS011;2301;47.354;8.528;2022-11-23T09:46:24;5.85;;;2.67;;
4577;SDS011;2301;47.354;8.528;2022-11-23T09:51:47;7.78;;;2.10;;
4577;SDS011;2301;47.354;8.528;2022-11-23T09:54:21;2.35;;;1.92;;
4577;SDS011;2301;47.354;8.528;2022-11-23T09:56:52;4.05;;;2.00;;
4577;SDS011;2301;47.354;8.528;2022-11-23T09:59:24;4.75;;;1.85;;
4577;SDS011;2301;47.354;8.528;2022-11-23T10:02:02;4.68;;;2.30;;
4577;SDS011;2301;47.354;8.528;2022-11-23T10:04:31;3.53;;;1.95;;
4577;SDS011;2301;47.354;8.528;2022-11-23T10:07:06;2.67;;;1.90;;
4577;SDS011;2301;47.354;8.528;2022-11-23T10:09:45;5.85;;;2.08;;
4577;SDS011;2301;47.354;8.528;2022-11-23T10:12:34;3.95;;;2.10;;
4577;SDS011;2301;47.354;8.528;2022-11-23T10:15:12;7.22;;;2.63;;
4577;SDS011;2301;47.354;8.528;2022-11-23T10:20:48;2.20;;;1.88;;
4577;SDS011;2301;47.354;8.528;2022-11-23T10:23:26;5.70;;;2.40;;
4577;SDS011;2301;47.354;8.528;2022-11-23T10:26:06;2.08;;;1.70;;
4577;SDS011;2301;47.354;8.528;2022-11-23T10:28:37;2.60;;;1.75;;
4577;SDS011;2301;47.354;8.528;2022-11-23T10:31:09;3.78;;;1.95;;
4577;SDS011;2301;47.354;8.528;2022-11-23T10:33:41;2.67;;;2.20;;
4577;SDS011;2301;47.354;8.528;2022-11-23T10:36:20;4.60;;;1.70;;
4577;SDS011;2301;47.354;8.528;2022-11-23T10:38:49;2.63;;;1.60;;
4577;SDS011;2301;47.354;8.528;2022-11-23T10:41:19;2.53;;;1.70;;
4577;SDS011;2301;47.354;8.528;2022-11-23T10:43:47;3.63;;;1.98;;
4577;SDS011;2301;47.354;8.528;2022-11-23T10:46:22;4.25;;;2.00;;
4577;SDS011;2301;47.354;8.528;2022-11-23T10:49:07;5.63;;;2.40;;
4577;SDS011;2301;47.354;8.528;2022-11-23T10:51:38;2.05;;;1.70;;
4577;SDS011;2301;47.354;8.528;2022-11-23T10:54:18;3.43;;;1.60;;
4577;SDS011;2301;47.354;8.528;2022-11-23T10:56:48;4.18;;;2.15;;
4577;SDS011;2301;47.354;8.528;2022-11-23T10:59:30;7.13;;;2.22;;
4577;SDS011;2301;47.354;8.528;2022-11-23T11:02:00;5.05;;;2.28;;
4577;SDS011;2301;47.354;8.528;2022-11-23T11:04:35;7.85;;;1.58;;
4577;SDS011;2301;47.354;8.528;2022-11-23T11:07:09;7.60;;;2.30;;
4577;SDS011;2301;47.354;8.528;2022-11-23T11:09:50;9.40;;;2.47;;
4577;SDS011;2301;47.354;8.528;2022-11-23T11:12:17;3.87;;;2.37;;
4577;SDS011;2301;47.354;8.528;2022-11-23T11:14:54;4.43;;;2.00;;
4577;SDS011;2301;47.354;8.528;2022-11-23T11:17:27;5.60;;;2.00;;
4577;SDS011;2301;47.354;8.528;2022-11-23T11:19:55;3.15;;;1.95;;
4577;SDS011;2301;47.354;8.528;2022-11-23T11:22:26;8.93;;;2.25;;
4577;SDS011;2301;47.354;8.528;2022-11-23T11:25:04;3.95;;;1.77;;
4577;SDS011;2301;47.354;8.528;2022-11-23T11:27:32;3.97;;;2.10;;
4577;SDS011;2301;47.354;8.528;2022-11-23T11:30:02;4.37;;;1.80;;
4577;SDS011;2301;47.354;8.528;2022-11-23T11:32:33;3.80;;;2.27;;
4577;SDS011;2301;47.354;8.528;2022-11-23T11:35:10;2.60;;;1.60;;
4577;SDS011;2301;47.354;8.528;2022-11-23T11:37:40;3.45;;;2.47;;
4577;SDS011;2301;47.354;8.528;2022-11-23T11:40:12;3.03;;;1.48;;
4577;SDS011;2301;47.354;8.528;2022-11-23T11:42:46;3.28;;;1.58;;
4577;SDS011;2301;47.354;8.528;2022-11-23T11:45:19;2.78;;;1.48;;
4577;SDS011;2301;47.354;8.528;2022-11-23T11:47:50;2.35;;;1.75;;
4577;SDS011;2301;47.354;8.528;2022-11-23T11:50:23;3.25;;;1.48;;
4577;SDS011;2301;47.354;8.528;2022-11-23T11:52:54;5.90;;;1.70;;
4577;SDS011;2301;47.354;8.528;2022-11-23T11:55:27;2.80;;;1.67;;
4577;SDS011;2301;47.354;8.528;2022-11-23T11:58:01;3.17;;;1.60;;
4577;SDS011;2301;47.354;8.528;2022-11-23T12:00:33;1.17;;;1.07;;
4577;SDS011;2301;47.354;8.528;2022-11-23T12:03:04;4.83;;;1.33;;
4577;SDS011;2301;47.354;8.528;2022-11-23T12:05:39;5.23;;;1.77;;
4577;SDS011;2301;47.354;8.528;2022-11-23T12:08:12;2.33;;;1.45;;
4577;SDS011;2301;47.354;8.528;2022-11-23T12:10:46;2.50;;;1.67;;
4577;SDS011;2301;47.354;8.528;2022-11-23T12:13:17;5.13;;;1.27;;
4577;SDS011;2301;47.354;8.528;2022-11-23T12:15:47;3.47;;;1.20;;
4577;SDS011;2301;47.354;8.528;2022-11-23T12:18:21;2.97;;;1.40;;
4577;SDS011;2301;47.354;8.528;2022-11-23T12:21:20;2.43;;;1.30;;
4577;SDS011;2301;47.354;8.528;2022-11-23T12:24:01;4.47;;;1.37;;
4577;SDS011;2301;47.354;8.528;2022-11-23T12:26:40;5.33;;;1.60;;
4577;SDS011;2301;47.354;8.528;2022-11-23T12:29:17;4.53;;;1.60;;
4577;SDS011;2301;47.354;8.528;2022-11-23T12:31:53;1.20;;;1.10;;
4577;SDS011;2301;47.354;8.528;2022-11-23T12:34:37;2.53;;;1.30;;
4577;SDS011;2301;47.354;8.528;2022-11-23T12:37:23;6.70;;;1.60;;
4577;SDS011;2301;47.354;8.528;2022-11-23T12:40:06;2.13;;;1.27;;
4577;SDS011;2301;47.354;8.528;2022-11-23T12:42:53;2.73;;;1.63;;
4577;SDS011;2301;47.354;8.528;2022-11-23T12:45:29;2.72;;;1.20;;
4577;SDS011;2301;47.354;8.528;2022-11-23T12:48:11;1.90;;;1.37;;
4577;SDS011;2301;47.354;8.528;2022-11-23T12:50:54;4.40;;;1.20;;
4577;SDS011;2301;47.354;8.528;2022-11-23T12:53:30;2.00;;;1.10;;
4577;SDS011;2301;47.354;8.528;2022-11-23T12:56:06;3.00;;;1.17;;
4577;SDS011;2301;47.354;8.528;2022-11-23T12:58:40;1.63;;;1.17;;
4577;SDS011;2301;47.354;8.528;2022-11-23T13:01:11;3.33;;;1.63;;
4577;SDS011;2301;47.354;8.528;2022-11-23T13:06:57;1.20;;;1.10;;
4577;SDS011;2301;47.354;8.528;2022-11-23T13:09:56;2.50;;;1.33;;
4577;SDS011;2301;47.354;8.528;2022-11-23T13:12:55;4.70;;;1.33;;
4577;SDS011;2301;47.354;8.528;2022-11-23T13:15:40;2.30;;;1.13;;
4577;SDS011;2301;47.354;8.528;2022-11-23T13:18:21;2.47;;;1.20;;
4577;SDS011;2301;47.354;8.528;2022-11-23T13:21:02;2.75;;;1.17;;
4577;SDS011;2301;47.354;8.528;2022-11-23T13:23:40;5.17;;;1.40;;
4577;SDS011;2301;47.354;8.528;2022-11-23T13:26:11;2.30;;;1.60;;
4577;SDS011;2301;47.354;8.528;2022-11-23T13:28:39;3.35;;;1.52;;
4577;SDS011;2301;47.354;8.528;2022-11-23T13:31:19;2.75;;;1.33;;
4577;SDS011;2301;47.354;8.528;2022-11-23T13:33:51;1.60;;;1.40;;
4577;SDS011;2301;47.354;8.528;2022-11-23T13:36:33;5.47;;;1.73;;
4577;SDS011;2301;47.354;8.528;2022-11-23T13:39:04;2.05;;;1.70;;
4577;SDS011;2301;47.354;8.528;2022-11-23T13:42:23;2.38;;;1.27;;
4577;SDS011;2301;47.354;8.528;2022-11-23T13:47:40;2.55;;;1.60;;
4577;SDS011;2301;47.354;8.528;2022-11-23T13:50:27;2.90;;;1.30;;
4577;SDS011;2301;47.354;8.528;2022-11-23T13:52:55;3.10;;;1.45;;
4577;SDS011;2301;47.354;8.528;2022-11-23T13:55:26;2.75;;;1.48;;
4577;SDS011;2301;47.354;8.528;2022-11-23T14:01:03;1.73;;;1.30;;
4577;SDS011;2301;47.354;8.528;2022-11-23T14:03:52;6.43;;;1.70;;
4577;SDS011;2301;47.354;8.528;2022-11-23T14:06:37;5.15;;;1.70;;
4577;SDS011;2301;47.354;8.528;2022-11-23T14:09:12;3.40;;;1.87;;
4577;SDS011;2301;47.354;8.528;2022-11-23T14:11:51;3.13;;;1.52;;
4577;SDS011;2301;47.354;8.528;2022-11-23T14:14:25;2.67;;;1.77;;
4577;SDS011;2301;47.354;8.528;2022-11-23T14:17:03;3.35;;;1.60;;
4577;SDS011;2301;47.354;8.528;2022-11-23T14:19:56;6.33;;;1.53;;
4577;SDS011;2301;47.354;8.528;2022-11-23T14:22:33;5.55;;;1.98;;
4577;SDS011;2301;47.354;8.528;2022-11-23T14:25:17;4.22;;;1.40;;
4577;SDS011;2301;47.354;8.528;2022-11-23T14:27:59;5.20;;;1.80;;
4577;SDS011;2301;47.354;8.528;2022-11-23T14:30:37;4.10;;;1.88;;
4577;SDS011;2301;47.354;8.528;2022-11-23T14:33:17;5.82;;;1.90;;
4577;SDS011;2301;47.354;8.528;2022-11-23T14:35:56;2.00;;;1.65;;
4577;SDS011;2301;47.354;8.528;2022-11-23T14:38:34;4.03;;;1.67;;
4577;SDS011;2301;47.354;8.528;2022-11-23T14:41:12;2.17;;;1.67;;
4577;SDS011;2301;47.354;8.528;2022-11-23T14:43:43;1.90;;;1.60;;
4577;SDS011;2301;47.354;8.528;2022-11-23T14:46:13;1.83;;;1.45;;
4577;SDS011;2301;47.354;8.528;2022-11-23T14:48:43;5.40;;;2.00;;
4577;SDS011;2301;47.354;8.528;2022-11-23T14:51:12;2.60;;;1.70;;
4577;SDS011;2301;47.354;8.528;2022-11-23T14:53:42;10.10;;;2.10;;
4577;SDS011;2301;47.354;8.528;2022-11-23T14:56:17;3.67;;;2.08;;
4577;SDS011;2301;47.354;8.528;2022-11-23T14:58:48;2.63;;;1.67;;
4577;SDS011;2301;47.354;8.528;2022-11-23T15:01:18;5.40;;;1.90;;
4577;SDS011;2301;47.354;8.528;2022-11-23T15:03:54;4.85;;;1.73;;
4577;SDS011;2301;47.354;8.528;2022-11-23T15:06:24;4.97;;;2.45;;
4577;SDS011;2301;47.354;8.528;2022-11-23T15:08:56;5.43;;;2.90;;
4577;SDS011;2301;47.354;8.528;2022-11-23T15:11:32;12.40;;;3.30;;
4577;SDS011;2301;47.354;8.528;2022-11-23T15:14:01;9.15;;;3.45;;
4577;SDS011;2301;47.354;8.528;2022-11-23T15:16:28;7.10;;;2.30;;
4577;SDS011;2301;47.354;8.528;2022-11-23T15:19:15;5.22;;;2.58;;
4577;SDS011;2301;47.354;8.528;2022-11-23T15:21:44;5.97;;;2.80;;
4577;SDS011;2301;47.354;8.528;2022-11-23T15:24:18;11.07;;;2.50;;
4577;SDS011;2301;47.354;8.528;2022-11-23T15:26:47;10.63;;;2.78;;
4577;SDS011;2301;47.354;8.528;2022-11-23T15:29:30;18.02;;;2.72;;
4577;SDS011;2301;47.354;8.528;2022-11-23T15:31:58;8.27;;;2.50;;
4577;SDS011;2301;47.354;8.528;2022-11-23T15:34:25;9.40;;;2.60;;
4577;SDS011;2301;47.354;8.528;2022-11-23T15:36:54;3.28;;;2.08;;
4577;SDS011;2301;47.354;8.528;2022-11-23T15:39:22;11.27;;;1.70;;
4577;SDS011;2301;47.354;8.528;2022-11-23T15:41:51;8.63;;;1.90;;
4577;SDS011;2301;47.354;8.528;2022-11-23T15:44:23;5.53;;;2.05;;
4577;SDS011;2301;47.354;8.528;2022-11-23T15:46:51;4.53;;;1.80;;
4577;SDS011;2301;47.354;8.528;2022-11-23T15:49:20;3.65;;;2.10;;
4577;SDS011;2301;47.354;8.528;2022-11-23T15:51:47;5.55;;;2.22;;